Latest Coastal Weather Observations for Groote Eylandt Airport

IDD60701

Issued at 5:25 pm CST Friday 31 October 2014 (issued every 10 minutes, with the page automatically refreshed every 10 minutes)

About coastal observations | Map of coastal stations | Coastal observations for NT | Marine services | Other Formats
Station Details ID: 014518 Name: GROOTE EYLANDT AIRPORT Lat: -13.97 Lon: 136.46 Height: 13.7 m
Data from the previous 72 hours. | See also: Recent months at Groote Eylandt Airport
Date/Time
CST
Temp

°C
Wind Pressure Rain
since 9am
mm
Weather Cloud Vis
km
Sea
Height
m
Swell
Dir
 
Speed
knots
Gust
knots
hPa Trend Height
m
Period
s
Dir
31/05:00pm 32.3 NE 8 11 1007.8 - 0.0 - - 10 - - - -
31/04:30pm 32.5 N 8 12 1007.7 - 0.0 - - 10 - - - -
31/04:00pm 32.0 N 9 14 1007.7 - 0.0 - - 10 - - - -
31/03:30pm 32.5 NE 10 15 1007.8 - 0.0 - - 10 - - - -
31/03:00pm 33.4 NE 9 14 1008.0 - 0.0 - - 10 - - - -
31/02:30pm 33.4 ENE 9 15 1008.1 - 0.0 - Partly cloudy 10 - - - -
31/02:00pm 32.4 N 10 15 1008.4 - 0.0 - Partly cloudy 10 - - - -
31/01:30pm 32.3 N 10 12 1008.7 - 0.0 - Partly cloudy 10 - - - -
31/01:00pm 32.9 NNE 11 17 1009.1 - 0.0 - Partly cloudy 10 - - - -
31/12:30pm 31.7 N 12 17 1009.8 - 0.0 - - 10 - - - -
31/12:00pm 31.6 NNE 11 15 1010.6 - 0.0 - Partly cloudy 10 - - - -
31/11:30am 30.9 ENE 9 15 1011.0 - 0.0 - Partly cloudy 10 - - - -
31/11:00am 31.6 N 9 16 1011.3 - 0.0 - Partly cloudy 10 - - - -
31/10:30am 30.4 NNE 9 13 1011.6 - 0.0 - Partly cloudy 10 - - - -
31/10:00am 29.8 NNE 10 15 1011.8 - 0.0 - Partly cloudy 10 - - - -
31/09:30am 28.6 NNE 8 13 1012.0 - 0.0 - Partly cloudy 10 - - - -
31/09:00am 29.2 N 8 11 1011.8 - 0.0 - Mostly cloudy 10 - - - -
31/08:30am 27.8 NNE 10 14 1011.7 - 0.0 - Partly cloudy 10 - - - -
31/08:00am 28.1 N 9 13 1011.3 - 0.0 - Partly cloudy 10 - - - -
31/07:30am 26.8 N 5 8 1011.0 - 0.0 - - 10 - - - -
31/07:00am 24.8 CALM 0 0 1010.5 - 0.0 - - 10 - - - -
31/06:30am 23.1 ENE 3 4 1010.1 - 0.0 - - 10 - - - -
31/06:00am 22.5 NNE 3 3 1009.8 - 0.0 - - 9 - - - -
31/05:30am 21.9 CALM 0 4 1009.5 - 0.0 - - 10 - - - -
31/05:00am 23.5 NNE 4 5 1009.0 - 0.0 - - 10 - - - -
31/04:30am 21.5 ENE 3 4 1008.6 - 0.0 - - 10 - - - -
31/04:00am 21.2 CALM 0 0 1008.3 - 0.0 - - 10 - - - -
31/03:30am 21.5 CALM 0 0 1008.1 - 0.0 - - 10 - - - -
31/03:00am 22.2 NE 2 3 1008.1 - 0.0 - - 10 - - - -
31/02:30am 22.1 E 4 5 1008.2 - 0.0 - - 10 - - - -
31/02:00am 22.3 E 4 4 1008.2 - 0.0 - - 10 - - - -
31/01:30am 22.8 E 5 5 1008.5 - 0.0 - - 10 - - - -
31/01:00am 22.7 E 2 3 1008.9 - 0.0 - - 10 - - - -
31/12:30am 23.5 ENE 3 4 1009.3 - 0.0 - - 10 - - - -
31/12:00am 23.4 ENE 3 4 1009.7 - 0.0 - - 10 - - - -
 
Date/Time
CST
Temp

°C
Wind Pressure Rain
since 9am
mm
Weather Cloud Vis
km
Sea
Height
m
Swell
Dir
 
Speed
knots
Gust
knots
hPa Trend Height
m
Period
s
Dir
30/11:30pm 24.3 ENE 4 5 1010.0 - 0.0 - - 10 - - - -
30/11:00pm 23.6 CALM 0 2 1010.2 - 0.0 - - 10 - - - -
30/10:30pm 24.1 E 3 4 1010.5 - 0.0 - - 10 - - - -
30/10:00pm 24.8 ESE 2 3 1010.5 - 0.0 - - 10 - - - -
30/09:30pm 25.3 ESE 3 4 1010.2 - 0.0 - - 10 - - - -
30/09:00pm 25.5 SE 4 5 1009.9 - 0.0 - - 10 - - - -
30/08:30pm 26.4 E 4 5 1009.6 - 0.0 - - 10 - - - -
30/08:00pm 27.2 ENE 5 6 1009.4 - 0.0 - - 10 - - - -
30/07:30pm 27.5 NE 5 7 1009.1 - 0.0 - - 10 - - - -
30/07:00pm 28.3 ENE 7 9 1008.9 - 0.0 - - 10 - - - -
30/06:30pm 29.1 NE 7 10 1008.5 - 0.0 - - 10 - - - -
30/06:00pm 30.4 NE 8 13 1008.2 - 0.0 - - 10 - - - -
30/05:30pm 31.6 NNE 10 13 1008.0 - 0.0 - - 10 - - - -
30/05:00pm 32.3 NE 9 13 1007.6 - 0.0 - - 10 - - - -
30/04:30pm 33.5 NE 10 13 1007.4 - 0.0 - - 10 - - - -
30/04:00pm 34.0 SW 4 9 1007.5 - 0.0 - - 10 - - - -
30/03:30pm 34.2 S 5 9 1007.7 - 0.0 - - 10 - - - -
30/03:00pm 33.6 SSW 5 9 1007.9 - 0.0 - Mostly clear 10 - - - -
30/02:30pm 33.0 SSW 7 11 1008.1 - 0.0 - - 10 - - - -
30/02:00pm 32.9 S 6 9 1008.4 - 0.0 - - 10 - - - -
30/01:30pm 33.9 S 7 11 1008.8 - 0.0 - - 10 - - - -
30/01:00pm 33.1 SSE 7 11 1009.4 - 0.0 - - 10 - - - -
30/12:30pm 32.8 S 10 16 1009.6 - 0.0 - - 10 - - - -
30/12:00pm 32.2 SW 4 7 1010.4 - 0.0 - - 10 - - - -
30/11:30am 31.2 W 9 14 1010.8 - 0.0 - Partly cloudy 10 - - - -
30/11:00am 30.2 WNW 9 12 1011.2 - 0.0 - Partly cloudy 10 - - - -
30/10:30am 29.8 NW 10 13 1011.5 - 0.0 - Partly cloudy 10 - - - -
30/10:00am 30.4 WNW 6 9 1011.8 - 0.0 - - 10 - - - -
30/09:30am 29.4 WNW 5 9 1011.9 - 0.0 - Partly cloudy 10 - - - -
30/09:00am 28.3 NW 7 11 1011.5 - 0.0 - Mostly clear 10 - - - -
30/08:30am 28.1 NNW 6 9 1011.3 - 0.0 - - 10 - - - -
30/08:00am 27.1 NNW 1 6 1011.0 - 0.0 - - 10 - - - -
30/07:30am 26.1 CALM 0 0 1010.7 - 0.0 - - 10 - - - -
30/07:18am 24.7 CALM 0 0 1010.6 - 0.0 - - 7 - - - -
30/07:00am 23.1 E 3 4 1010.5 - 0.0 - - 5 - - - -
30/06:30am 20.6 CALM 0 3 1010.2 - 0.0 - - 5 - - - -
30/06:29am 20.6 CALM 0 3 1010.2 - 0.0 - - 5 - - - -
30/06:00am 20.0 SE 1 4 1009.9 - 0.0 - - 8 - - - -
30/05:30am 20.2 E 3 3 1009.7 - 0.0 - - 9 - - - -
30/05:00am 20.5 E 2 3 1009.3 - 0.0 - - 10 - - - -
30/04:30am 20.8 E 3 5 1009.3 - 0.0 - - 10 - - - -
30/04:00am 20.9 CALM 0 0 1009.3 - 0.0 - - 10 - - - -
30/03:30am 21.2 CALM 0 0 1009.3 - 0.0 - - 10 - - - -
30/03:00am 21.9 CALM 0 0 1009.5 - 0.0 - - 10 - - - -
30/02:30am 21.9 E 1 3 1009.6 - 0.0 - - 10 - - - -
30/02:00am 22.3 CALM 0 0 1009.8 - 0.0 - - 10 - - - -
30/01:30am 22.9 E 2 3 1010.0 - 0.0 - - 10 - - - -
30/01:00am 23.7 E 5 6 1010.3 - 0.0 - - 10 - - - -
30/12:30am 24.4 NE 5 6 1010.6 - 0.0 - - 10 - - - -
30/12:00am 24.6 NE 4 5 1010.9 - 0.0 - - 10 - - - -
 
Date/Time
CST
Temp

°C
Wind Pressure Rain
since 9am
mm
Weather Cloud Vis
km
Sea
Height
m
Swell
Dir
 
Speed
knots
Gust
knots
hPa Trend Height
m
Period
s
Dir
29/11:30pm 24.7 NE 4 6 1011.2 - 0.0 - - 10 - - - -
29/11:00pm 24.5 NE 4 5 1011.4 - 0.0 - - 10 - - - -
29/10:30pm 24.8 ENE 6 7 1011.5 - 0.0 - - 10 - - - -
29/10:00pm 24.4 E 4 5 1011.5 - 0.0 - - 10 - - - -
29/09:30pm 25.6 ENE 5 6 1011.4 - 0.0 - - 10 - - - -
29/09:00pm 26.1 ENE 6 8 1011.3 - 0.0 - - 10 - - - -
29/08:30pm 26.6 NE 5 6 1011.1 - 0.0 - - 10 - - - -
29/08:00pm 27.1 NE 6 8 1011.0 - 0.0 - - 10 - - - -
29/07:30pm 27.7 ENE 5 7 1010.7 - 0.0 - - 10 - - - -
29/07:00pm 28.5 E 5 7 1010.6 - 0.0 - - 10 - - - -
29/06:30pm 28.8 N 3 4 1010.4 - 0.0 - - 10 - - - -
29/06:00pm 29.5 NW 7 9 1010.2 - 0.0 - - 10 - - - -
29/05:30pm 30.3 NW 7 9 1010.1 - 0.0 - - 10 - - - -
29/05:00pm 30.9 NW 6 9 1009.7 - 0.0 - - 10 - - - -
29/04:30pm 31.2 WNW 7 10 1009.5 - 0.0 - - 10 - - - -
29/04:00pm 31.8 W 6 10 1009.5 - 0.0 - - 10 - - - -
29/03:30pm 31.4 WSW 9 11 1009.6 - 0.0 - - 10 - - - -
29/03:00pm 31.6 W 7 11 1009.7 - 0.0 - - 10 - - - -
29/02:30pm 31.8 W 7 12 1009.9 - 0.0 - - 10 - - - -
29/02:00pm 31.5 WSW 7 13 1010.0 - 0.0 - Partly cloudy 10 - - - -
29/01:30pm 31.3 WSW 7 12 1010.4 - 0.0 - - 10 - - - -
29/01:00pm 31.5 WNW 8 11 1010.6 - 0.0 - - 10 - - - -
29/12:30pm 30.9 WSW 6 9 1011.1 - 0.0 - - 10 - - - -
29/12:00pm 30.5 W 7 11 1011.4 - 0.0 - - 10 - - - -
29/11:30am 29.8 W 8 11 1011.8 - 0.0 - - 10 - - - -
29/11:00am 29.7 W 8 11 1011.9 - 0.0 - - 10 - - - -
29/10:30am 30.4 W 9 12 1012.3 - 0.0 - - 10 - - - -
29/10:00am 31.0 W 5 10 1012.3 - 0.0 - - 10 - - - -
29/09:30am 31.5 E 5 8 1012.4 - 0.0 - - 10 - - - -
29/09:00am 30.5 ENE 3 5 1012.5 - 0.0 - - 10 - - - -
29/08:30am 29.3 NW 4 7 1012.3 - 0.0 - - 10 - - - -
29/08:00am 27.8 N 4 6 1012.0 - 0.0 - - 10 - - - -
29/07:45am 27.1 E 3 4 1011.8 - 0.0 - - 10 - - - -
29/07:30am 25.3 ENE 4 5 1011.8 - 0.0 - - 3 - - - -
29/07:00am 22.4 E 3 4 1011.6 - 0.0 - - 1 - - - -
29/06:30am 20.7 E 4 5 1011.3 - 0.0 - - 2 - - - -
29/06:00am 19.7 CALM 0 0 1011.2 - 0.0 - - 2 - - - -
29/05:30am 19.9 CALM 0 0 1010.9 - 0.0 - - 3 - - - -
29/05:20am 19.9 CALM 0 0 1010.8 - 0.0 - - 5 - - - -
29/05:00am 20.0 CALM 0 0 1010.7 - 0.0 - - 10 - - - -
29/04:30am 20.3 E 3 4 1010.3 - 0.0 - - 10 - - - -
29/04:00am 20.4 S 1 4 1010.1 - 0.0 - - 10 - - - -
29/03:30am 20.6 S 4 5 1010.0 - 0.0 - - 10 - - - -
29/03:00am 22.2 NNE 4 5 1010.0 - 0.0 - - 10 - - - -
29/02:30am 21.7 CALM 0 0 1010.2 - 0.0 - - 10 - - - -
29/02:00am 22.8 CALM 0 0 1010.6 - 0.0 - - 10 - - - -
29/01:30am 22.6 CALM 0 0 1010.8 - 0.0 - - 10 - - - -
29/01:00am 23.1 E 1 3 1010.9 - 0.0 - - 10 - - - -
29/12:30am 23.8 E 4 5 1011.3 - 0.0 - - 10 - - - -
29/12:00am 24.3 E 4 5 1011.7 - 0.0 - - 10 - - - -
 
Date/Time
CST
Temp

°C
Wind Pressure Rain
since 9am
mm
Weather Cloud Vis
km
Sea
Height
m
Swell
Dir
 
Speed
knots
Gust
knots
hPa Trend Height
m
Period
s
Dir
28/11:30pm 24.9 ENE 6 8 1011.8 - 0.0 - - 10 - - - -
28/11:00pm 24.0 E 3 4 1011.8 - 0.0 - - 10 - - - -
28/10:30pm 24.3 E 3 4 1011.8 - 0.0 - - 10 - - - -
28/10:00pm 25.2 ENE 4 6 1011.5 - 0.0 - - 10 - - - -
28/09:30pm 25.6 NE 6 8 1011.4 - 0.0 - - 10 - - - -
28/09:00pm 25.6 NE 4 6 1011.2 - 0.0 - - 10 - - - -
28/08:30pm 26.2 E 3 5 1011.3 - 0.0 - - 10 - - - -
28/08:00pm 26.5 E 4 6 1010.9 - 0.0 - - 10 - - - -
28/07:30pm 27.1 E 5 7 1010.8 - 0.0 - - 10 - - - -
28/07:00pm 27.7 E 6 8 1010.4 - 0.0 - - 10 - - - -
28/06:30pm 28.6 ENE 6 9 1010.4 - 0.0 - - 10 - - - -
28/06:00pm 29.6 NE 7 9 1010.3 - 0.0 - - 10 - - - -
28/05:30pm 29.8 W 5 7 1010.0 - 0.0 - - 10 - - - -

Other Formats:

Comma delimited format used in spreadsheet applications
http://www.bom.gov.au/fwo/IDD60701/IDD60701.94153.axf

JavaScript Object Notation format (JSON) in row-major order
http://www.bom.gov.au/fwo/IDD60701/IDD60701.94153.json